createdAt,value
2024-05-09T00:00:22.416Z,4.30
2024-05-09T00:10:46.103Z,5.95
2024-05-09T00:15:51.935Z,5.90
2024-05-09T00:20:57.882Z,5.97
2024-05-09T00:26:06.631Z,5.68
2024-05-09T00:31:12.507Z,5.63
2024-05-09T00:36:18.346Z,6.32
2024-05-09T00:41:27.715Z,5.25
2024-05-09T00:46:34.727Z,5.38
2024-05-09T00:51:42.678Z,4.90
2024-05-09T00:56:52.895Z,5.72
2024-05-09T01:01:59.715Z,4.60
2024-05-09T01:07:06.351Z,4.65
2024-05-09T01:12:15.057Z,6.38
2024-05-09T01:17:21.134Z,4.93
2024-05-09T01:22:30.067Z,4.55
2024-05-09T01:27:38.497Z,5.07
2024-05-09T01:32:44.496Z,5.03
2024-05-09T01:37:50.705Z,5.32
2024-05-09T01:42:59.265Z,5.88
2024-05-09T01:48:05.529Z,5.38
2024-05-09T01:53:12.737Z,9.35
2024-05-09T01:58:21.726Z,5.63
2024-05-09T02:03:27.734Z,5.43
2024-05-09T02:08:35.248Z,4.70
2024-05-09T02:13:44.270Z,4.85
2024-05-09T02:18:50.218Z,5.53
2024-05-09T02:23:56.111Z,5.13
2024-05-09T02:29:05.039Z,6.13
2024-05-09T02:34:11.935Z,6.57
2024-05-09T02:39:18.136Z,6.28
2024-05-09T02:44:27.786Z,5.38
2024-05-09T02:49:34.020Z,6.75
2024-05-09T02:54:39.915Z,7.05
2024-05-09T02:59:49.206Z,8.73
2024-05-09T03:04:55.140Z,8.07
2024-05-09T03:10:01.184Z,8.50
2024-05-09T03:15:10.305Z,8.23
2024-05-09T03:20:23.308Z,9.15
2024-05-09T03:25:30.106Z,9.13
2024-05-09T03:30:42.161Z,9.85
2024-05-09T03:35:49.678Z,10.68
2024-05-09T03:40:55.742Z,12.00
2024-05-09T03:46:04.676Z,11.82
2024-05-09T03:51:10.773Z,13.63
2024-05-09T03:56:17.052Z,12.02
2024-05-09T04:01:26.032Z,12.32
2024-05-09T04:06:32.132Z,12.32
2024-05-09T04:11:39.385Z,10.95
2024-05-09T04:16:52.795Z,10.20
2024-05-09T04:21:58.649Z,10.27
2024-05-09T04:27:04.769Z,9.07
2024-05-09T04:32:13.462Z,10.63
2024-05-09T04:37:23.293Z,9.52
2024-05-09T04:42:29.148Z,10.00
2024-05-09T04:47:38.056Z,9.15
2024-05-09T04:52:45.174Z,6.95
2024-05-09T04:57:51.311Z,5.65
2024-05-09T05:03:00.609Z,3.83
2024-05-09T05:08:07.328Z,2.67
2024-05-09T05:13:21.356Z,2.40
2024-05-09T05:18:31.381Z,2.72
2024-05-09T05:23:37.511Z,2.60
2024-05-09T05:28:43.462Z,2.95
2024-05-09T05:33:53.222Z,2.33
2024-05-09T05:38:59.448Z,2.17
2024-05-09T05:44:05.703Z,2.45
2024-05-09T05:49:14.949Z,1.27
2024-05-09T05:54:20.953Z,1.10
2024-05-09T05:59:29.597Z,2.28
2024-05-09T06:04:38.606Z,2.00
2024-05-09T06:09:46.041Z,2.35
2024-05-09T06:14:55.108Z,1.55
2024-05-09T06:20:05.817Z,1.48
2024-05-09T06:25:15.114Z,1.10
2024-05-09T06:30:29.894Z,0.90
2024-05-09T06:35:46.339Z,1.33
2024-05-09T06:40:52.321Z,1.27
2024-05-09T06:45:58.088Z,3.63
2024-05-09T06:51:07.205Z,1.60
2024-05-09T07:01:18.954Z,1.30
2024-05-09T07:06:29.174Z,1.08
2024-05-09T07:11:35.879Z,0.82
2024-05-09T07:16:41.843Z,0.88
2024-05-09T07:21:51.519Z,2.25
2024-05-09T07:26:57.348Z,1.23
2024-05-09T07:32:03.274Z,2.05
2024-05-09T07:37:12.897Z,1.83
2024-05-09T07:42:18.793Z,4.25
2024-05-09T07:53:33.791Z,2.17
2024-05-09T07:58:04.548Z,1.30
2024-05-09T08:03:10.611Z,1.77
2024-05-09T08:08:19.374Z,0.80
2024-05-09T08:13:25.559Z,0.80
2024-05-09T08:18:31.907Z,1.95
2024-05-09T08:23:40.717Z,1.40
2024-05-09T08:28:46.966Z,0.80
2024-05-09T08:33:53.169Z,0.82
2024-05-09T08:39:01.820Z,0.80
2024-05-09T08:44:07.951Z,1.17
2024-05-09T08:49:14.907Z,0.77
2024-05-09T08:54:23.766Z,1.60
2024-05-09T08:59:36.932Z,1.48
2024-05-09T09:04:49.595Z,0.95
2024-05-09T09:09:59.195Z,0.60
2024-05-09T09:15:05.259Z,1.13
2024-05-09T09:20:16.456Z,1.17
2024-05-09T09:25:27.945Z,1.20
2024-05-09T09:30:37.399Z,1.90
2024-05-09T09:35:43.987Z,0.95
2024-05-09T09:40:53.545Z,0.98
2024-05-09T09:46:02.166Z,0.80
2024-05-09T09:51:10.773Z,0.70
2024-05-09T09:56:21.567Z,1.00
2024-05-09T10:01:28.713Z,4.72
2024-05-09T10:06:40.516Z,2.05
2024-05-09T10:11:51.998Z,1.70
2024-05-09T10:17:07.305Z,1.90
2024-05-09T10:22:13.295Z,1.50
2024-05-09T10:27:29.010Z,1.15
2024-05-09T10:32:41.518Z,1.15
2024-05-09T10:37:48.817Z,1.65
2024-05-09T10:42:58.622Z,1.45
2024-05-09T10:48:05.341Z,1.52
2024-05-09T10:53:12.728Z,1.10
2024-05-09T10:58:24.934Z,1.13
2024-05-09T11:03:32.156Z,0.90
2024-05-09T11:08:40.326Z,1.48
2024-05-09T11:13:49.245Z,0.77
2024-05-09T11:24:07.311Z,1.00
2024-05-09T11:29:19.441Z,0.40
2024-05-09T11:34:26.698Z,0.80
2024-05-09T11:39:33.244Z,0.73
2024-05-09T11:44:41.804Z,0.80
2024-05-09T11:49:47.775Z,1.30
2024-05-09T11:54:53.738Z,0.60
2024-05-09T12:00:03.201Z,0.60
2024-05-09T12:05:10.718Z,2.25
2024-05-09T12:10:22.235Z,2.22
2024-05-09T12:15:37.023Z,2.28
2024-05-09T12:20:43.893Z,1.80
2024-05-09T12:25:50.325Z,1.98
2024-05-09T12:30:59.040Z,1.55
2024-05-09T12:36:06.234Z,1.70
2024-05-09T12:41:12.309Z,2.00
2024-05-09T12:46:21.515Z,3.20
2024-05-09T12:51:27.555Z,1.60
2024-05-09T12:56:33.663Z,1.50
2024-05-09T13:01:43.359Z,1.98
2024-05-09T13:06:49.529Z,2.08
2024-05-09T13:11:55.557Z,2.88
2024-05-09T13:17:04.262Z,2.90
2024-05-09T13:22:10.798Z,2.17
2024-05-09T13:27:16.854Z,4.00
2024-05-09T13:32:25.576Z,3.08
2024-05-09T13:37:33.153Z,3.25
2024-05-09T13:42:39.027Z,1.85
2024-05-09T13:47:48.277Z,3.22
2024-05-09T13:52:54.300Z,3.08
2024-05-09T13:58:00.341Z,1.30
2024-05-09T14:03:10.936Z,2.65
2024-05-09T14:08:19.997Z,2.60
2024-05-09T14:13:26.448Z,2.87
2024-05-09T14:18:36.019Z,2.80
2024-05-09T14:23:41.974Z,2.53
2024-05-09T14:28:48.646Z,2.40
2024-05-09T14:33:57.828Z,1.40
2024-05-09T14:44:11.987Z,2.15
2024-05-09T14:49:20.805Z,4.68
2024-05-09T14:54:26.755Z,1.92
2024-05-09T14:59:32.766Z,1.40
2024-05-09T15:04:43.188Z,1.15
2024-05-09T15:09:50.060Z,2.05
2024-05-09T15:14:56.115Z,1.75
2024-05-09T15:20:09.236Z,1.10
2024-05-09T15:25:16.216Z,2.30
2024-05-09T15:30:30.459Z,3.70
2024-05-09T15:35:42.153Z,3.20
2024-05-09T15:40:50.221Z,2.63
2024-05-09T15:45:56.374Z,1.30
2024-05-09T15:51:05.038Z,7.30
2024-05-09T15:56:12.195Z,3.40
2024-05-09T16:01:18.557Z,2.80
2024-05-09T16:06:28.292Z,2.45
2024-05-09T16:11:36.285Z,3.85
2024-05-09T16:16:42.918Z,1.02
2024-05-09T16:21:51.937Z,1.90
2024-05-09T16:27:01.253Z,1.50
2024-05-09T16:32:08.949Z,2.08
2024-05-09T16:37:17.855Z,0.93
2024-05-09T16:42:24.753Z,3.17
2024-05-09T16:47:30.845Z,5.80
2024-05-09T16:52:40.138Z,4.20
2024-05-09T16:57:46.148Z,4.75
2024-05-09T17:02:54.616Z,3.20
2024-05-09T17:08:04.242Z,1.90
2024-05-09T17:13:10.552Z,1.70
2024-05-09T17:18:17.204Z,2.88
2024-05-09T17:23:25.879Z,1.40
2024-05-09T17:28:33.082Z,3.50
2024-05-09T17:33:40.321Z,3.28
2024-05-09T17:38:50.926Z,5.03
2024-05-09T17:43:56.828Z,3.95
2024-05-09T17:49:03.631Z,3.80
2024-05-09T17:54:12.544Z,1.98
2024-05-09T17:59:19.560Z,6.25
2024-05-09T18:04:32.779Z,7.18
2024-05-09T18:09:42.643Z,7.63
2024-05-09T18:19:54.620Z,2.55
2024-05-09T18:25:03.380Z,1.58
2024-05-09T18:30:23.742Z,1.23
2024-05-09T18:35:33.963Z,2.83
2024-05-09T18:40:47.412Z,4.50
2024-05-09T18:45:55.448Z,3.05
2024-05-09T18:51:02.140Z,3.00
2024-05-09T18:56:11.869Z,2.17
2024-05-09T19:01:17.857Z,1.30
2024-05-09T19:06:24.885Z,1.55
2024-05-09T19:11:34.777Z,2.10
2024-05-09T19:16:41.044Z,2.17
2024-05-09T19:21:47.103Z,1.70
2024-05-09T19:26:56.725Z,1.08
2024-05-09T19:32:04.016Z,1.95
2024-05-09T19:37:11.266Z,5.72
2024-05-09T19:42:21.079Z,4.80
2024-05-09T19:47:27.526Z,1.70
2024-05-09T19:52:33.461Z,1.30
2024-05-09T19:57:42.031Z,1.27
2024-05-09T20:02:49.047Z,1.70
2024-05-09T20:07:55.170Z,3.08
2024-05-09T20:13:04.124Z,4.30
2024-05-09T20:18:10.983Z,5.30
2024-05-09T20:23:17.124Z,4.05
2024-05-09T20:28:25.959Z,2.50
2024-05-09T20:33:32.710Z,2.65
2024-05-09T20:38:38.598Z,1.23
2024-05-09T20:43:47.185Z,1.08
2024-05-09T20:48:53.295Z,0.60
2024-05-09T20:53:59.447Z,0.70
2024-05-09T20:59:07.951Z,0.73
2024-05-09T21:04:14.349Z,0.90
2024-05-09T21:09:20.272Z,1.10
2024-05-09T21:14:28.791Z,0.70
2024-05-09T21:19:35.159Z,0.60
2024-05-09T21:24:41.027Z,0.75
2024-05-09T21:29:49.631Z,0.60
2024-05-09T21:34:55.662Z,0.77
2024-05-09T21:40:06.849Z,0.70
2024-05-09T21:45:17.546Z,0.60
2024-05-09T21:50:31.859Z,0.60
2024-05-09T21:55:44.870Z,2.25
2024-05-09T22:00:54.782Z,1.90
2024-05-09T22:06:01.010Z,1.95
2024-05-09T22:11:07.679Z,0.73
2024-05-09T22:16:16.826Z,0.50
2024-05-09T22:21:22.725Z,0.50
2024-05-09T22:26:28.594Z,0.63
2024-05-09T22:31:37.174Z,0.40
2024-05-09T22:36:43.178Z,0.80
2024-05-09T22:41:49.703Z,1.00
2024-05-09T22:46:58.396Z,1.13
2024-05-09T22:52:04.386Z,0.90
2024-05-09T22:57:10.231Z,1.35
2024-05-09T23:02:20.009Z,2.03
2024-05-09T23:07:27.164Z,2.10
2024-05-09T23:12:33.038Z,2.00
2024-05-09T23:17:41.890Z,2.00
2024-05-09T23:22:48.692Z,2.25
2024-05-09T23:27:55.784Z,1.20
2024-05-09T23:33:05.271Z,2.15
2024-05-09T23:38:11.641Z,2.60
2024-05-09T23:43:17.898Z,2.22
2024-05-09T23:48:26.647Z,1.48
2024-05-09T23:53:32.832Z,0.70
2024-05-09T23:58:39.038Z,1.42
